Time;durP1;ratioP1;P1;durP2;ratioP2;P2;SDS_P1;SDS_P2;PMS_P1;PMS_P2;Temp;Humidity;BMP_temperature;BMP_pressure;BME280_temperature;BME280_humidity;BME280_pressure;Samples;Min_cycle;Max_cycle;Signal;HPM_P1;HPM_P2
2022/07/01 00:01:43;;;;;;;4.82;3.50;;;;;;;21.17;nan;-24405.53;4979964;28;20216;-60
2022/07/01 00:04:10;;;;;;;3.60;2.88;;;;;;;18.51;nan;-24332.56;4979679;28;20250;-61
2022/07/01 00:06:36;;;;;;;5.20;3.10;;;;;;;20.86;nan;-24396.91;4979951;28;20227;-60
2022/07/01 00:09:04;;;;;;;5.72;3.63;;;;;;;21.29;nan;-24408.84;4979369;28;20183;-62
2022/07/01 00:11:30;;;;;;;7.20;3.60;;;;;;;21.33;nan;-24409.81;4980052;28;20199;-60
2022/07/01 00:13:56;;;;;;;6.38;3.90;;;;;;;20.77;nan;-24394.56;4980428;28;20278;-59
2022/07/01 00:16:21;;;;;;;6.25;3.13;;;;;;;21.01;nan;-24401.22;4978319;28;20556;-58
2022/07/01 00:18:46;;;;;;;5.75;3.65;;;;;;;20.92;nan;-24398.59;4978503;28;20393;-61
2022/07/01 00:21:12;;;;;;;5.10;3.38;;;;;;;20.84;nan;-24396.38;4979191;28;20219;-60
2022/07/01 00:23:37;;;;;;;6.43;3.90;;;;;;;20.57;nan;-24389.00;4978669;28;20644;-61
2022/07/01 00:26:03;;;;;;;5.20;3.72;;;;;;;20.57;nan;-24389.00;4978743;28;20677;-61
2022/07/01 00:28:29;;;;;;;4.82;3.55;;;;;;;20.58;nan;-24389.28;4982196;28;20192;-60
2022/07/01 00:30:54;;;;;;;5.60;3.90;;;;;;;20.41;nan;-24384.56;4984960;28;20210;-59
2022/07/01 00:33:19;;;;;;;5.30;3.47;;;;;;;20.77;nan;-24394.56;4983002;28;20295;-60
2022/07/01 00:35:45;;;;;;;5.88;3.47;;;;;;;20.84;nan;-24396.50;4983200;28;20210;-59
2022/07/01 00:38:10;;;;;;;5.18;3.67;;;;;;;20.80;nan;-24395.41;4984973;28;20882;-60
2022/07/01 00:40:36;;;;;;;6.00;3.38;;;;;;;20.41;nan;-24384.72;4984802;28;20971;-60
2022/07/01 00:43:02;;;;;;;6.47;4.15;;;;;;;20.45;nan;-24385.69;4983045;28;20183;-62
2022/07/01 00:45:28;;;;;;;5.60;4.00;;;;;;;20.40;nan;-24384.44;4983346;28;20180;-60
2022/07/01 00:47:54;;;;;;;6.18;3.65;;;;;;;20.47;nan;-24386.25;4983222;28;20192;-60
2022/07/01 00:50:19;;;;;;;5.60;3.72;;;;;;;20.50;nan;-24387.06;4980544;28;20199;-61
2022/07/01 00:52:45;;;;;;;5.85;3.80;;;;;;;20.46;nan;-24386.09;4982156;28;20740;-60
2022/07/01 00:55:13;;;;;;;6.43;4.00;;;;;;;20.68;nan;-24392.19;4980673;28;20545;-59
2022/07/01 00:57:39;;;;;;;5.32;3.72;;;;;;;20.49;nan;-24386.94;4982867;28;20678;-60
2022/07/01 01:00:11;;;;;;;5.68;3.72;;;;;;;20.65;nan;-24391.22;4980580;28;20294;-61
2022/07/01 01:02:37;;;;;;;6.18;3.90;;;;;;;19.70;nan;-24365.13;4981642;28;20194;-61
2022/07/01 01:05:04;;;;;;;6.30;3.75;;;;;;;20.49;nan;-24386.78;4983095;28;20267;-59
2022/07/01 01:07:32;;;;;;;5.78;3.65;;;;;;;20.53;nan;-24387.91;4983458;28;20196;-61
2022/07/01 01:09:59;;;;;;;8.15;4.00;;;;;;;20.13;nan;-24377.06;4982876;28;20188;-61
2022/07/01 01:12:29;;;;;;;7.65;4.20;;;;;;;20.43;nan;-24385.28;4983059;28;20194;-60
2022/07/01 01:14:56;;;;;;;5.25;3.70;;;;;;;20.43;nan;-24385.28;4981992;28;21649;-59
2022/07/01 01:17:22;;;;;;;8.45;4.38;;;;;;;20.61;nan;-24390.25;4982539;28;20195;-60
2022/07/01 01:19:48;;;;;;;5.43;3.70;;;;;;;20.61;nan;-24390.25;4981253;28;20255;-60
2022/07/01 01:22:16;;;;;;;4.97;3.63;;;;;;;20.27;nan;-24380.97;4981240;28;20188;-61
2022/07/01 01:24:43;;;;;;;6.40;3.80;;;;;;;20.15;nan;-24377.63;4983348;28;20199;-60
2022/07/01 01:27:08;;;;;;;5.53;3.78;;;;;;;20.42;nan;-24385.00;4981447;28;21222;-60
2022/07/01 01:29:38;;;;;;;6.55;3.88;;;;;;;20.30;nan;-24381.66;4981802;28;20195;-61
2022/07/01 01:32:08;;;;;;;7.32;3.85;;;;;;;20.33;nan;-24382.50;4981600;28;20188;-60
2022/07/01 01:34:36;;;;;;;7.65;3.88;;;;;;;20.22;nan;-24379.44;4982929;28;20247;-61
2022/07/01 01:37:02;;;;;;;6.20;3.92;;;;;;;20.21;nan;-24379.16;4981874;28;20180;-60
2022/07/01 01:39:28;;;;;;;5.28;3.80;;;;;;;19.42;nan;-24357.47;4981508;28;20207;-61
2022/07/01 01:41:53;;;;;;;6.65;3.95;;;;;;;20.00;nan;-24373.31;4980968;28;20856;-59
2022/07/01 01:44:19;;;;;;;7.07;4.18;;;;;;;20.21;nan;-24379.28;4982077;28;20195;-61
2022/07/01 01:46:44;;;;;;;6.55;4.00;;;;;;;19.92;nan;-24371.09;4982341;28;21565;-60
2022/07/01 01:49:10;;;;;;;7.05;4.18;;;;;;;20.31;nan;-24381.94;4981624;28;20231;-60
2022/07/01 01:51:36;;;;;;;5.60;3.80;;;;;;;20.28;nan;-24381.22;4981263;28;20179;-60
2022/07/01 01:54:02;;;;;;;6.82;3.92;;;;;;;20.45;nan;-24385.69;4981916;28;20709;-59
2022/07/01 01:56:29;;;;;;;6.97;4.22;;;;;;;20.41;nan;-24384.56;4980893;28;20181;-60
2022/07/01 01:58:55;;;;;;;7.35;4.43;;;;;;;20.39;nan;-24384.03;4981987;28;20192;-59
2022/07/01 02:01:21;;;;;;;6.03;3.88;;;;;;;20.08;nan;-24375.53;4981391;28;20235;-60
2022/07/01 02:03:48;;;;;;;8.23;4.20;;;;;;;18.79;nan;-24340.22;4982428;28;20187;-61
2022/07/01 02:06:16;;;;;;;6.18;4.00;;;;;;;19.94;nan;-24371.78;4981132;28;20287;-60
2022/07/01 02:08:41;;;;;;;6.40;4.25;;;;;;;19.73;nan;-24366.09;4982501;28;20694;-60
2022/07/01 02:11:08;;;;;;;5.82;4.15;;;;;;;19.87;nan;-24369.84;4980109;28;20187;-60
2022/07/01 02:13:34;;;;;;;6.30;4.18;;;;;;;20.02;nan;-24374.00;4981022;28;20234;-61
2022/07/01 02:15:59;;;;;;;7.72;4.80;;;;;;;19.67;nan;-24364.28;4981976;28;20656;-60
2022/07/01 02:18:25;;;;;;;9.60;4.63;;;;;;;19.96;nan;-24372.22;4980424;28;20973;-60
2022/07/01 02:20:50;;;;;;;8.90;5.28;;;;;;;19.64;nan;-24363.59;4981472;28;21869;-61
2022/07/01 02:23:16;;;;;;;8.18;5.00;;;;;;;19.58;nan;-24361.91;4980954;28;20202;-59
2022/07/01 02:25:42;;;;;;;6.60;4.20;;;;;;;20.00;nan;-24373.47;4982838;28;20282;-60
2022/07/01 02:28:08;;;;;;;8.18;4.85;;;;;;;20.26;nan;-24380.53;4979984;28;21021;-59
2022/07/01 02:30:37;;;;;;;6.57;4.28;;;;;;;20.13;nan;-24377.06;4980735;28;20207;-61
2022/07/01 02:33:06;;;;;;;7.03;4.80;;;;;;;19.96;nan;-24372.22;4980111;28;20189;-60
2022/07/01 02:35:33;;;;;;;7.55;5.00;;;;;;;19.72;nan;-24365.69;4982513;28;20188;-61
2022/07/01 02:37:59;;;;;;;6.63;4.57;;;;;;;19.66;nan;-24364.16;4982082;28;20698;-60
2022/07/01 02:40:25;;;;;;;8.02;4.50;;;;;;;20.09;nan;-24375.97;4982021;28;20203;-59
2022/07/01 02:42:50;;;;;;;6.68;4.30;;;;;;;;;;4983072;28;20321;-59
2022/07/01 02:45:16;;;;;;;7.88;5.00;;;;;;;19.83;nan;-24368.72;4979617;28;21626;-60
2022/07/01 02:47:42;;;;;;;7.53;4.72;;;;;;;20.12;nan;-24376.78;4982336;28;20195;-62
2022/07/01 02:50:09;;;;;;;6.50;4.60;;;;;;;19.81;nan;-24368.19;4980327;28;21308;-60
2022/07/01 02:52:36;;;;;;;9.48;4.90;;;;;;;20.00;nan;-24373.31;4980534;28;20262;-61
2022/07/01 02:55:05;;;;;;;6.50;4.30;;;;;;;20.02;nan;-24374.00;4977370;28;20196;-60
2022/07/01 02:57:30;;;;;;;7.47;4.80;;;;;;;19.52;nan;-24360.13;4985061;28;20305;-61
2022/07/01 02:59:56;;;;;;;8.00;4.43;;;;;;;20.02;nan;-24373.88;4978425;28;20188;-60
2022/07/01 03:02:22;;;;;;;7.72;4.30;;;;;;;20.31;nan;-24381.94;4978242;28;20180;-60
2022/07/01 03:04:48;;;;;;;8.95;4.82;;;;;;;20.38;nan;-24383.88;4979686;28;20168;-60
2022/07/01 03:07:14;;;;;;;9.07;4.60;;;;;;;20.87;nan;-24397.19;4978673;28;20197;-60
2022/07/01 03:09:40;;;;;;;7.70;4.47;;;;;;;21.07;nan;-24402.88;4980757;28;20191;-60
2022/07/01 03:12:25;;;;;;;7.88;4.45;;;;;;;21.37;nan;-24410.94;4977865;28;20257;-61
2022/07/01 03:14:58;;;;;;;7.15;3.95;;;;;;;21.93;nan;-24426.31;4979088;28;20185;-61
2022/07/01 03:17:24;;;;;;;6.38;4.30;;;;;;;22.23;nan;-24434.47;4979454;28;22031;-59
2022/07/01 03:19:54;;;;;;;9.82;4.57;;;;;;;23.04;nan;-24456.59;4977349;28;21343;-60
2022/07/01 03:22:22;;;;;;;7.32;4.30;;;;;;;23.16;nan;-24460.06;4979097;28;20655;-60
2022/07/01 03:24:48;;;;;;;7.05;4.63;;;;;;;;;;4980993;28;20979;-60
2022/07/01 03:27:14;;;;;;;5.68;3.95;;;;;;;25.04;nan;-24511.38;4979440;28;20197;-61
2022/07/01 03:29:40;;;;;;;6.22;4.05;;;;;;;25.50;nan;-24523.75;4979166;28;20949;-63
2022/07/01 03:32:07;;;;;;;6.38;4.07;;;;;;;25.93;nan;-24535.44;4978831;28;20317;-60
2022/07/01 03:34:32;;;;;;;5.22;3.70;;;;;;;25.47;nan;-24523.06;4981497;28;20610;-61
2022/07/01 03:36:58;;;;;;;6.70;3.95;;;;;;;27.12;nan;-24567.84;4979199;28;20184;-61
2022/07/01 03:39:23;;;;;;;6.13;4.28;;;;;;;27.53;nan;-24578.81;4978448;28;20651;-62
2022/07/01 03:41:49;;;;;;;7.20;4.47;;;;;;;28.19;nan;-24596.63;4978177;28;20255;-61
2022/07/01 03:44:14;;;;;;;5.00;3.47;;;;;;;29.16;nan;-24622.88;4979034;28;20263;-60
2022/07/01 03:46:39;;;;;;;7.10;4.07;;;;;;;30.01;nan;-24645.81;4977173;28;22417;-61
2022/07/01 03:49:05;;;;;;;6.40;4.25;;;;;;;30.23;nan;-24651.81;4977515;28;20203;-61
2022/07/01 03:51:30;;;;;;;9.48;4.25;;;;;;;31.04;nan;-24673.59;4977569;28;20179;-61
2022/07/01 03:56:40;;;;;;;5.13;3.67;;;;;;;31.74;nan;-24692.50;4980127;28;20183;-61
2022/07/01 03:59:05;;;;;;;5.70;3.92;;;;;;;32.48;nan;-24712.34;4978001;28;20260;-62
2022/07/01 04:01:31;;;;;;;5.85;3.95;;;;;;;32.98;nan;-24725.78;4976491;28;20300;-61
2022/07/01 04:03:56;;;;;;;4.72;3.83;;;;;;;33.40;nan;-24736.88;4982738;28;20188;-62
2022/07/01 04:06:22;;;;;;;7.18;4.10;;;;;;;33.78;nan;-24747.03;4986266;28;20957;-60
2022/07/01 04:08:48;;;;;;;7.45;4.20;;;;;;;33.97;nan;-24752.31;4985519;28;20187;-60
2022/07/01 04:11:15;;;;;;;7.70;4.65;;;;;;;34.08;nan;-24755.28;4985727;28;20176;-60
2022/07/01 04:13:40;;;;;;;5.13;3.83;;;;;;;34.10;nan;-24755.81;4985877;28;20179;-61
2022/07/01 04:16:06;;;;;;;7.35;3.60;;;;;;;34.15;nan;-24757.03;4985987;28;20239;-60
2022/07/01 04:18:33;;;;;;;6.15;4.07;;;;;;;34.25;nan;-24759.75;4985527;28;20651;-61
2022/07/01 04:23:43;;;;;;;5.30;3.80;;;;;;;34.06;nan;-24754.59;4984805;28;20884;-60
2022/07/01 04:26:08;;;;;;;6.28;4.10;;;;;;;34.33;nan;-24761.78;4985109;28;20191;-62
2022/07/01 04:28:34;;;;;;;6.70;3.70;;;;;;;34.62;nan;-24769.47;4986318;28;20651;-60
2022/07/01 04:31:00;;;;;;;5.75;3.95;;;;;;;34.80;nan;-24774.34;4986602;28;20188;-59
2022/07/01 04:33:25;;;;;;;9.65;4.15;;;;;;;34.90;nan;-24777.19;4985909;28;20199;-61
2022/07/01 04:35:51;;;;;;;5.22;3.83;;;;;;;34.59;nan;-24768.94;4984753;28;20183;-61
2022/07/01 04:38:17;;;;;;;7.63;4.60;;;;;;;34.62;nan;-24769.63;4985779;28;20306;-62
2022/07/01 04:41:58;;;;;;;4.82;3.65;;;;;;;34.31;nan;-24761.38;4989094;28;21586;-63
2022/07/01 04:43:28;;;;;;;5.90;3.80;;;;;;;34.47;nan;-24765.56;4987648;28;20206;-61
2022/07/01 04:45:54;;;;;;;5.97;3.80;;;;;;;33.94;nan;-24751.50;4984738;28;20184;-61
2022/07/01 04:48:19;;;;;;;4.38;3.35;;;;;;;33.53;nan;-24740.41;4984124;28;20286;-61
2022/07/01 04:50:44;;;;;;;5.47;3.97;;;;;;;32.86;nan;-24722.66;4984928;28;20232;-61
2022/07/01 04:53:10;;;;;;;7.88;3.38;;;;;;;31.75;nan;-24692.66;4984874;28;20286;-64
2022/07/01 04:55:35;;;;;;;5.60;3.70;;;;;;;31.31;nan;-24680.81;4986999;28;20298;-61
2022/07/01 04:58:01;;;;;;;4.80;3.38;;;;;;;31.10;nan;-24675.25;4984511;28;20189;-62
2022/07/01 05:00:26;;;;;;;5.25;3.40;;;;;;;30.49;nan;-24658.91;4984605;28;20210;-59
2022/07/01 05:02:52;;;;;;;8.48;3.70;;;;;;;30.95;nan;-24671.16;4984439;28;20190;-63
2022/07/01 05:05:17;;;;;;;7.88;3.70;;;;;;;30.36;nan;-24655.22;4984581;28;21269;-61
2022/07/01 05:07:42;;;;;;;4.85;3.50;;;;;;;29.87;nan;-24642.00;4986843;28;22043;-61
2022/07/01 05:10:08;;;;;;;4.55;3.47;;;;;;;29.78;nan;-24639.69;4985373;28;22300;-61
2022/07/01 05:12:34;;;;;;;4.93;3.70;;;;;;;29.35;nan;-24628.06;4986782;28;20183;-61
2022/07/01 05:14:59;;;;;;;4.70;3.33;;;;;;;29.48;nan;-24631.50;4983699;28;20253;-59
2022/07/01 05:21:55;;;;;;;5.97;3.78;;;;;;;29.90;nan;-24642.97;4982667;28;20187;-61
2022/07/01 05:22:55;;;;;;;6.00;3.78;;;;;;;28.70;nan;-24610.59;4982662;28;20233;-60
2022/07/01 05:25:20;;;;;;;7.68;3.65;;;;;;;28.48;nan;-24604.56;4983218;28;20333;-62
2022/07/01 05:27:46;;;;;;;5.22;3.45;;;;;;;28.83;nan;-24614.13;4981693;28;20179;-59
2022/07/01 05:30:11;;;;;;;4.72;3.47;;;;;;;29.11;nan;-24621.53;4981932;28;20184;-62
2022/07/01 05:32:37;;;;;;;4.97;3.60;;;;;;;28.41;nan;-24602.66;4982907;28;20211;-61
2022/07/01 05:35:02;;;;;;;9.02;3.83;;;;;;;27.95;nan;-24590.19;4981070;28;20539;-59
2022/07/01 05:37:28;;;;;;;5.38;3.90;;;;;;;28.23;nan;-24597.88;4980576;28;20200;-62
2022/07/01 05:39:53;;;;;;;5.40;3.55;;;;;;;28.93;nan;-24616.75;4982512;28;20180;-61
2022/07/01 05:42:19;;;;;;;4.82;3.50;;;;;;;29.57;nan;-24634.09;4981353;28;20188;-61
2022/07/01 05:44:44;;;;;;;5.38;3.45;;;;;;;29.58;nan;-24634.22;4981043;28;20892;-61
2022/07/01 05:47:10;;;;;;;6.05;3.65;;;;;;;30.05;nan;-24646.91;4982042;28;20598;-62
2022/07/01 05:49:35;;;;;;;6.03;3.47;;;;;;;29.92;nan;-24643.50;4981032;28;20187;-61
2022/07/01 05:52:01;;;;;;;4.95;3.33;;;;;;;29.50;nan;-24632.19;4979890;28;20286;-60
2022/07/01 05:54:26;;;;;;;6.00;3.53;;;;;;;29.29;nan;-24626.56;4979917;28;20238;-61
2022/07/01 05:56:51;;;;;;;7.93;3.80;;;;;;;28.58;nan;-24607.16;4980462;28;20198;-60
2022/07/01 05:59:17;;;;;;;5.45;3.30;;;;;;;29.12;nan;-24621.78;4980129;28;20187;-60
2022/07/01 06:01:43;;;;;;;6.50;4.10;;;;;;;29.15;nan;-24622.59;4980212;28;20267;-60
2022/07/01 06:04:09;;;;;;;5.03;3.65;;;;;;;29.11;nan;-24621.53;4979934;28;21972;-61
2022/07/01 06:06:34;;;;;;;5.95;3.58;;;;;;;29.21;nan;-24624.38;4979727;28;20195;-64
2022/07/01 06:09:00;;;;;;;7.55;3.60;;;;;;;28.84;nan;-24614.28;4981217;28;20242;-62
2022/07/01 06:11:25;;;;;;;4.55;3.42;;;;;;;28.60;nan;-24607.84;4980448;28;20187;-61
2022/07/01 06:13:51;;;;;;;5.63;3.42;;;;;;;28.97;nan;-24617.97;4982042;28;20274;-61
2022/07/01 06:16:16;;;;;;;5.65;3.45;;;;;;;28.44;nan;-24603.47;4980476;28;20195;-64
2022/07/01 06:18:42;;;;;;;5.68;3.15;;;;;;;28.50;nan;-24605.25;4979413;28;20841;-64
2022/07/01 06:21:07;;;;;;;6.43;3.75;;;;;;;28.52;nan;-24605.66;4979429;28;20345;-64
2022/07/01 06:23:32;;;;;;;3.92;3.00;;;;;;;28.55;nan;-24606.63;4980990;28;20256;-63
2022/07/01 06:25:58;;;;;;;5.55;3.80;;;;;;;28.63;nan;-24608.53;4982707;28;20199;-61
2022/07/01 06:28:29;;;;;;;6.00;3.40;;;;;;;28.48;nan;-24604.69;4982841;28;20200;-60
2022/07/01 06:30:55;;;;;;;6.07;3.90;;;;;;;28.80;nan;-24613.31;4982585;28;20242;-65
2022/07/01 06:33:20;;;;;;;4.88;3.33;;;;;;;28.89;nan;-24615.78;4981856;28;20188;-62
2022/07/01 06:35:46;;;;;;;4.18;3.10;;;;;;;28.82;nan;-24613.88;4981717;28;20188;-64
2022/07/01 06:38:11;;;;;;;5.43;3.50;;;;;;;28.93;nan;-24616.88;4979481;28;20194;-61
2022/07/01 06:40:37;;;;;;;4.85;3.25;;;;;;;29.06;nan;-24620.28;4981278;28;20338;-61
2022/07/01 06:43:03;;;;;;;7.18;3.60;;;;;;;28.98;nan;-24618.09;4979665;28;20199;-61
2022/07/01 06:45:28;;;;;;;6.90;3.50;;;;;;;28.71;nan;-24610.72;4981474;28;20183;-60
2022/07/01 06:47:54;;;;;;;3.80;2.95;;;;;;;29.11;nan;-24621.53;4981559;28;20190;-61
2022/07/01 06:50:19;;;;;;;5.35;3.50;;;;;;;29.33;nan;-24627.53;4981038;28;20183;-62
2022/07/01 06:52:45;;;;;;;5.07;3.40;;;;;;;29.30;nan;-24626.84;4981403;28;20629;-62
2022/07/01 06:55:10;;;;;;;6.35;3.65;;;;;;;29.30;nan;-24626.72;4981078;28;20706;-60
2022/07/01 06:57:36;;;;;;;4.25;3.00;;;;;;;29.14;nan;-24622.47;4977835;28;20697;-63
2022/07/01 07:00:03;;;;;;;5.75;3.30;;;;;;;29.05;nan;-24619.88;4980821;28;22034;-62
2022/07/01 07:02:28;;;;;;;4.97;3.05;;;;;;;28.98;nan;-24618.09;4981829;28;20179;-63
2022/07/01 07:04:57;;;;;;;5.72;3.67;;;;;;;29.28;nan;-24626.28;4979385;28;20646;-65
2022/07/01 07:07:24;;;;;;;5.22;3.47;;;;;;;28.62;nan;-24608.41;4981315;28;20262;-62
2022/07/01 07:09:49;;;;;;;5.38;3.47;;;;;;;29.25;nan;-24625.34;4980198;28;20283;-63
2022/07/01 07:12:15;;;;;;;5.75;3.47;;;;;;;29.30;nan;-24626.72;4980017;28;20291;-61
2022/07/01 07:14:40;;;;;;;6.07;3.33;;;;;;;29.55;nan;-24633.41;4979052;28;20281;-62
2022/07/01 07:17:05;;;;;;;4.03;3.30;;;;;;;29.57;nan;-24633.94;4981278;28;20192;-64
2022/07/01 07:19:31;;;;;;;5.45;3.47;;;;;;;29.79;nan;-24640.09;4981589;28;20730;-58
2022/07/01 07:21:56;;;;;;;7.05;3.22;;;;;;;29.80;nan;-24640.22;4981907;28;20210;-57
2022/07/01 07:24:22;;;;;;;7.10;3.65;;;;;;;29.71;nan;-24637.91;4980996;28;20221;-58
2022/07/01 07:26:47;;;;;;;6.35;3.50;;;;;;;29.72;nan;-24638.19;4980169;28;20175;-58
2022/07/01 07:29:13;;;;;;;4.13;3.17;;;;;;;29.65;nan;-24636.13;4981250;28;20183;-58
2022/07/01 07:31:39;;;;;;;4.57;3.10;;;;;;;29.71;nan;-24637.91;4980008;28;20414;-62
2022/07/01 07:34:05;;;;;;;5.43;3.50;;;;;;;29.92;nan;-24643.38;4981013;28;20643;-60
2022/07/01 07:36:31;;;;;;;5.43;3.90;;;;;;;29.81;nan;-24640.63;4980413;28;20284;-60
2022/07/01 07:38:58;;;;;;;4.70;3.50;;;;;;;29.77;nan;-24639.53;4980523;28;20183;-58
2022/07/01 07:41:23;;;;;;;5.13;3.55;;;;;;;29.83;nan;-24641.19;4980951;28;20215;-59
2022/07/01 07:43:49;;;;;;;6.40;3.55;;;;;;;30.04;nan;-24646.63;4978765;28;20184;-58
2022/07/01 07:46:15;;;;;;;4.97;3.40;;;;;;;30.00;nan;-24645.69;4980453;28;20191;-58
2022/07/01 07:48:42;;;;;;;4.97;3.40;;;;;;;29.64;nan;-24635.84;4981402;28;20176;-60
2022/07/01 07:51:09;;;;;;;7.20;3.22;;;;;;;30.50;nan;-24659.19;4981642;28;20192;-57
2022/07/01 07:53:35;;;;;;;4.38;3.25;;;;;;;30.33;nan;-24654.41;4982251;28;20198;-57
2022/07/01 07:56:00;;;;;;;4.18;3.28;;;;;;;30.20;nan;-24651.13;4982218;28;20222;-58
2022/07/01 07:58:26;;;;;;;5.22;3.60;;;;;;;30.38;nan;-24655.91;4979839;28;20322;-58
2022/07/01 08:00:51;;;;;;;4.10;3.15;;;;;;;30.20;nan;-24651.00;4978002;28;20213;-58
2022/07/01 08:03:17;;;;;;;5.45;3.10;;;;;;;30.45;nan;-24657.66;4979844;28;20237;-59
2022/07/01 08:05:43;;;;;;;7.85;3.10;;;;;;;30.36;nan;-24655.34;4980936;28;20181;-58
2022/07/01 08:08:08;;;;;;;3.42;2.63;;;;;;;30.41;nan;-24656.59;4982849;28;20203;-57
2022/07/01 08:10:34;;;;;;;4.15;3.13;;;;;;;30.60;nan;-24661.75;4982366;28;20213;-58
2022/07/01 08:13:03;;;;;;;4.13;2.83;;;;;;;30.67;nan;-24663.81;4981062;28;20194;-59
2022/07/01 08:15:30;;;;;;;5.00;3.30;;;;;;;30.99;nan;-24672.38;4979232;28;20726;-58
2022/07/01 08:17:56;;;;;;;3.88;2.92;;;;;;;31.25;nan;-24679.31;4979407;28;20188;-57
2022/07/01 08:20:21;;;;;;;4.85;3.15;;;;;;;31.42;nan;-24683.94;4978098;28;20980;-58
2022/07/01 08:22:48;;;;;;;4.53;3.25;;;;;;;31.01;nan;-24672.78;4979167;28;20199;-58
2022/07/01 08:25:13;;;;;;;4.32;3.00;;;;;;;31.22;nan;-24678.50;4979600;28;20180;-58
2022/07/01 08:27:39;;;;;;;4.38;2.85;;;;;;;31.11;nan;-24675.53;4979144;28;20175;-59
2022/07/01 08:30:06;;;;;;;5.85;3.33;;;;;;;30.99;nan;-24672.25;4978800;28;20285;-58
2022/07/01 08:32:32;;;;;;;5.03;3.10;;;;;;;30.49;nan;-24658.91;4979915;28;20190;-62
2022/07/01 08:34:57;;;;;;;5.20;3.08;;;;;;;30.55;nan;-24660.53;4980351;28;22178;-60
2022/07/01 08:37:23;;;;;;;4.75;3.30;;;;;;;30.60;nan;-24661.75;4979963;28;20194;-60
2022/07/01 08:39:48;;;;;;;4.32;3.35;;;;;;;30.70;nan;-24664.63;4979038;28;20277;-57
2022/07/01 08:42:14;;;;;;;3.20;2.65;;;;;;;30.85;nan;-24668.56;4980604;28;20309;-57
2022/07/01 08:44:39;;;;;;;4.40;3.20;;;;;;;31.22;nan;-24678.50;4979493;28;20197;-58
2022/07/01 08:47:13;;;;;;;3.90;3.13;;;;;;;31.65;nan;-24690.06;4978544;28;20183;-58
2022/07/01 08:49:38;;;;;;;3.60;2.90;;;;;;;31.99;nan;-24699.16;4978885;28;20178;-58
2022/07/01 08:52:03;;;;;;;4.43;3.13;;;;;;;32.16;nan;-24703.66;4983579;28;20187;-60
2022/07/01 08:54:29;;;;;;;5.97;3.60;;;;;;;32.26;nan;-24706.38;4982528;28;20175;-57
2022/07/01 08:56:54;;;;;;;5.20;2.92;;;;;;;31.91;nan;-24697.00;4983833;28;20654;-58
2022/07/01 08:59:25;;;;;;;6.68;3.40;;;;;;;31.69;nan;-24691.03;4983585;28;20608;-58
2022/07/01 09:02:04;;;;;;;5.00;3.58;;;;;;;31.42;nan;-24683.94;4984444;28;20208;-58
2022/07/01 09:04:30;;;;;;;3.95;3.10;;;;;;;31.67;nan;-24690.63;4982978;28;20175;-58
2022/07/01 09:07:16;;;;;;;5.32;3.47;;;;;;;31.85;nan;-24695.38;4981519;28;20179;-57
2022/07/01 09:09:42;;;;;;;5.95;3.60;;;;;;;31.79;nan;-24693.75;4983688;28;20268;-57
2022/07/01 09:12:17;;;;;;;3.92;2.92;;;;;;;31.23;nan;-24678.78;4987813;28;20183;-59
2022/07/01 09:14:42;;;;;;;9.25;3.40;;;;;;;31.34;nan;-24681.78;4987993;28;20197;-59
2022/07/01 09:17:18;;;;;;;4.78;3.30;;;;;;;31.62;nan;-24689.25;4983616;28;20265;-58
2022/07/01 09:19:49;;;;;;;4.22;3.20;;;;;;;32.27;nan;-24706.78;4981114;28;20226;-57
2022/07/01 09:22:15;;;;;;;4.90;3.63;;;;;;;32.39;nan;-24710.03;4982765;28;20219;-58
2022/07/01 09:24:42;;;;;;;5.10;3.15;;;;;;;32.57;nan;-24714.66;4983820;28;20187;-57
2022/07/01 09:27:13;;;;;;;4.95;3.35;;;;;;;32.66;nan;-24717.09;4983089;28;20319;-59
2022/07/01 09:29:41;;;;;;;3.95;2.80;;;;;;;32.63;nan;-24716.28;4983610;28;21017;-57
2022/07/01 09:32:09;;;;;;;5.10;3.17;;;;;;;32.56;nan;-24714.38;4983070;28;20299;-57
2022/07/01 09:35:01;;;;;;;6.60;3.38;;;;;;;33.06;nan;-24727.81;4983933;28;20179;-70
2022/07/01 09:37:27;;;;;;;5.45;2.72;;;;;;;32.62;nan;-24716.00;4982425;28;22027;-71
2022/07/01 09:39:55;;;;;;;3.90;3.17;;;;;;;32.50;nan;-24712.88;4982912;28;20192;-71
2022/07/01 09:42:23;;;;;;;3.30;2.90;;;;;;;32.47;nan;-24712.06;4984171;28;20199;-70
2022/07/01 09:45:04;;;;;;;4.32;3.20;;;;;;;32.17;nan;-24703.94;4983736;28;20187;-70
2022/07/01 09:47:31;;;;;;;3.67;2.85;;;;;;;31.92;nan;-24697.28;4984187;28;20233;-69
2022/07/01 09:49:57;;;;;;;3.08;2.58;;;;;;;32.19;nan;-24704.47;4982008;28;20187;-71
2022/07/01 09:52:24;;;;;;;4.00;2.92;;;;;;;32.54;nan;-24713.84;4984498;28;20186;-68
2022/07/01 09:54:50;;;;;;;6.80;2.92;;;;;;;32.91;nan;-24723.88;4981089;28;20184;-69
2022/07/01 09:57:17;;;;;;;3.78;2.95;;;;;;;33.02;nan;-24726.72;4980805;28;20190;-70
2022/07/01 09:59:42;;;;;;;4.55;3.50;;;;;;;33.41;nan;-24737.28;4982928;28;20170;-70
2022/07/01 10:02:09;;;;;;;7.65;3.30;;;;;;;33.83;nan;-24748.38;4983733;28;20209;-70
2022/07/01 10:04:37;;;;;;;5.05;3.38;;;;;;;33.66;nan;-24743.91;4983687;28;20193;-70
2022/07/01 10:07:16;;;;;;;3.88;3.35;;;;;;;33.92;nan;-24750.97;4984376;28;20226;-70
2022/07/01 10:10:14;;;;;;;4.90;3.42;;;;;;;34.02;nan;-24753.66;4981487;28;20186;-68
2022/07/01 10:12:46;;;;;;;4.88;3.03;;;;;;;34.33;nan;-24761.78;4982543;28;20269;-69
2022/07/01 10:15:17;;;;;;;3.80;3.40;;;;;;;34.59;nan;-24768.81;4980249;28;20183;-69
2022/07/01 10:17:45;;;;;;;3.80;3.15;;;;;;;34.28;nan;-24760.44;4980568;28;22445;-68
2022/07/01 10:20:14;;;;;;;4.10;3.05;;;;;;;34.20;nan;-24758.25;4981394;28;20227;-73
2022/07/01 10:22:40;;;;;;;3.47;2.83;;;;;;;34.64;nan;-24770.16;4979204;28;20262;-71
2022/07/01 10:25:30;;;;;;;4.57;3.08;;;;;;;34.59;nan;-24768.81;4980419;28;20187;-69
2022/07/01 10:28:16;;;;;;;4.22;3.13;;;;;;;34.92;nan;-24777.59;4981031;28;20187;-69
2022/07/01 10:30:59;;;;;;;6.55;3.30;;;;;;;34.79;nan;-24774.06;4981272;28;20705;-69
2022/07/01 10:33:55;;;;;;;4.55;3.20;;;;;;;35.11;nan;-24782.56;4981825;28;21087;-70
2022/07/01 10:36:35;;;;;;;3.50;2.75;;;;;;;35.21;nan;-24785.28;4980788;28;20650;-68
2022/07/01 10:39:01;;;;;;;3.90;2.63;;;;;;;35.46;nan;-24792.03;4978807;28;20187;-69
2022/07/01 10:41:29;;;;;;;4.75;2.90;;;;;;;35.80;nan;-24801.06;4982185;28;20241;-72
2022/07/01 10:43:55;;;;;;;3.40;2.88;;;;;;;35.95;nan;-24804.97;4981232;28;20187;-70
2022/07/01 10:46:37;;;;;;;3.63;3.00;;;;;;;35.68;nan;-24797.97;4980787;28;20190;-70
2022/07/01 10:49:02;;;;;;;4.95;2.85;;;;;;;34.57;nan;-24768.25;4981658;28;20187;-70
2022/07/01 10:51:51;;;;;;;4.30;3.20;;;;;;;34.84;nan;-24775.41;4981280;28;20229;-70
2022/07/01 10:54:42;;;;;;;12.02;4.28;;;;;;;34.31;nan;-24761.25;4981946;28;20191;-69
2022/07/01 10:57:40;;;;;;;4.15;3.20;;;;;;;34.77;nan;-24773.66;4982635;28;20183;-71
2022/07/01 11:00:06;;;;;;;3.28;2.85;;;;;;;34.80;nan;-24774.34;4976690;28;20203;-69
2022/07/01 11:02:33;;;;;;;3.67;2.95;;;;;;;34.63;nan;-24769.75;4981688;28;20230;-68
2022/07/01 11:05:12;;;;;;;6.43;3.13;;;;;;;35.01;nan;-24780.00;4981231;28;20183;-69
2022/07/01 11:07:39;;;;;;;4.55;3.22;;;;;;;34.85;nan;-24775.69;4979438;28;20226;-69
2022/07/01 11:10:07;;;;;;;5.15;3.10;;;;;;;35.25;nan;-24786.34;4980886;28;20204;-68
2022/07/01 11:12:33;;;;;;;3.63;2.80;;;;;;;35.40;nan;-24790.53;4978718;28;20188;-68
2022/07/01 11:15:01;;;;;;;3.72;2.88;;;;;;;35.39;nan;-24790.25;4978711;28;20180;-71
2022/07/01 11:17:28;;;;;;;4.57;3.22;;;;;;;35.97;nan;-24805.50;4978935;28;20191;-67
2022/07/01 11:19:58;;;;;;;5.00;3.50;;;;;;;36.35;nan;-24815.72;4979383;28;20253;-70
2022/07/01 11:22:30;;;;;;;3.72;3.22;;;;;;;36.50;nan;-24819.75;4980727;28;20238;-70
2022/07/01 11:24:58;;;;;;;4.10;3.20;;;;;;;36.52;nan;-24820.16;4979343;28;20202;-69
2022/07/01 11:27:25;;;;;;;4.63;3.30;;;;;;;36.69;nan;-24824.75;4995363;28;21241;-68
2022/07/01 11:29:52;;;;;;;4.97;3.20;;;;;;;36.56;nan;-24821.25;4979020;28;20176;-70
2022/07/01 11:32:41;;;;;;;3.55;2.97;;;;;;;36.33;nan;-24815.06;4978189;28;20541;-69
2022/07/01 11:39:21;;;;;;;3.80;3.22;;;;;;;35.80;nan;-24801.19;4980287;28;21090;-69
2022/07/01 11:41:06;;;;;;;4.55;3.20;;;;;;;35.53;nan;-24793.78;4962059;28;20238;-67
2022/07/01 11:43:34;;;;;;;4.75;3.20;;;;;;;34.51;nan;-24766.63;4983917;28;20191;-69
2022/07/01 11:46:03;;;;;;;5.38;3.25;;;;;;;34.71;nan;-24771.91;4981463;28;20187;-68
2022/07/01 11:48:41;;;;;;;3.80;3.03;;;;;;;35.02;nan;-24780.41;4978755;28;20187;-70
2022/07/01 11:51:15;;;;;;;4.57;3.00;;;;;;;35.10;nan;-24782.44;4978904;28;20182;-70
2022/07/01 11:53:46;;;;;;;6.85;3.10;;;;;;;34.93;nan;-24778.00;4803570;28;21324;-69
2022/07/01 11:56:13;;;;;;;4.25;3.13;;;;;;;34.82;nan;-24775.00;4499520;28;20668;-69
2022/07/01 11:58:44;;;;;;;3.78;2.90;;;;;;;34.64;nan;-24770.03;4978280;28;20880;-68